Danville, IL (61832)

12:54 PM CDT on October 01, 2016 (GMT -0500)
Danville Area Community College | | Change Station

Elev 656 ft 40.13 °N, 87.59 °W | Updated 37 seconds ago

Light Rain
Light Rain
63.3 °F
Feels Like 63.3 °F
N
2.0
Wind Variable Wind from SE
Gusts 2.0 mph

Today
High -- | Low -- °F
--% Chance of Precip.
Yesterday
High -- | Low -- °F
Precip. -- in
Pressure 29.99 in
Visibility 10.0 miles
Clouds Scattered Clouds 700 ft
Mostly Cloudy 1200 ft
Overcast 4000 ft
Dew Point 60 °F
Humidity 89%
Rainfall 0.00 in
Snow Depth Not available.
6:47 AM 6:31 PM
New Moon, 1% visible
METAR KDNV 011735Z AUTO 00000KT 10SM -RA SCT007 BKN012 OVC040 17/15 A2999 RMK AO2 T01670150
Pressure 29.99 in
Visibility 10.0 miles
Clouds Scattered Clouds 700 ft
Mostly Cloudy 1200 ft
Overcast 4000 ft
Dew Point 60 °F
Humidity 89%
Rainfall 0.00 in
Snow Depth Not available.
6:47 AM 6:31 PM
New Moon, 1% visible
METAR KDNV 011735Z AUTO 00000KT 10SM -RA SCT007 BKN012 OVC040 17/15 A2999 RMK AO2 T01670150

10-Day Weather Forecast

Almanac

Astronomy

Oct. 01, 2016 Rise Set
Actual Time
Civil Twilight
Nautical Twilight
Astronomical Twilight
Moon
Length of Visible Light
Length of Day
Tomorrow will be .
, % of the Moon is Illuminated

Today's Extremes

State Highs State Lows

Community

WunderPhotos

Upload Photos

1,942,965 photos uploaded!

WunderBlog® & News

Nearby

Air Quality

  Air Quality AQ Index Pollutant
Not available.

Snow Depth

Station Depth Elevation

Earthquake Activity

City Distance Mag. Time & Date
Minimum magnitude displayed is 2.5.

Coastal Water Temperatures

Place Temperature

Stations

Nearby Weather Stations

Station Location Temp. Windchill Dew Point Humidity Wind Precip. Elev Updated Type
                   

Watches & Warnings

There are currently no watches in effect.